Time;durP1;ratioP1;P1;durP2;ratioP2;P2;SDS_P1;SDS_P2;PMS_P1;PMS_P2;Temp;Humidity;BMP_temperature;BMP_pressure;BME280_temperature;BME280_humidity;BME280_pressure;Samples;Min_cycle;Max_cycle;Signal;HPM_P1;HPM_P2
2021/12/25 00:01:51;;;;;;;;;;;0.00;89.90;;;;;;6130309;23;19921;-79
2021/12/25 00:04:21;;;;;;;;;;;0.00;90.00;;;;;;6115733;23;19921;-80
2021/12/25 00:06:48;;;;;;;;;;;0.00;90.10;;;;;;6114208;23;19921;-79
2021/12/25 00:09:14;;;;;;;;;;;0.00;90.70;;;;;;6100517;23;19932;-79
2021/12/25 00:11:41;;;;;;;;;;;-0.10;90.90;;;;;;6105124;23;19921;-79
2021/12/25 00:14:11;;;;;;;;;;;-0.20;90.50;;;;;;6112441;23;19912;-79
2021/12/25 00:16:42;;;;;;;;;;;-0.30;90.70;;;;;;6118727;23;19929;-79
2021/12/25 00:19:09;;;;;;;;;;;-0.40;90.90;;;;;;6111334;23;19932;-79
2021/12/25 00:21:36;;;;;;;;;;;-0.40;90.90;;;;;;6102504;23;19972;-79
2021/12/25 00:24:03;;;;;;;;;;;-0.30;90.80;;;;;;6105609;23;19921;-80
2021/12/25 00:26:44;;;;;;;;;;;-0.30;90.70;;;;;;6103570;23;20342;-80
2021/12/25 00:34:38;;;;;;;;;;;-0.20;90.70;;;;;;6091718;23;19975;-79
2021/12/25 00:37:06;;;;;;;;;;;-0.20;90.70;;;;;;6106985;23;19924;-80
2021/12/25 00:39:32;;;;;;;;;;;-0.10;90.70;;;;;;6108003;23;19948;-79
2021/12/25 00:42:01;;;;;;;;;;;-0.10;91.00;;;;;;6082196;23;19925;-79
2021/12/25 00:44:28;;;;;;;;;;;0.00;91.00;;;;;;6110410;23;19920;-78
2021/12/25 00:46:57;;;;;;;;;;;0.10;90.80;;;;;;6114470;23;19925;-79
2021/12/25 00:49:25;;;;;;;;;;;0.10;90.70;;;;;;6129285;23;19932;-80
2021/12/25 00:51:52;;;;;;;;;;;0.10;90.70;;;;;;6106435;23;19912;-79
2021/12/25 00:54:20;;;;;;;;;;;0.10;90.60;;;;;;6109417;23;19929;-78
2021/12/25 00:56:46;;;;;;;;;;;0.10;90.60;;;;;;6105076;23;19921;-78
2021/12/25 00:59:13;;;;;;;;;;;0.00;90.40;;;;;;6109209;23;19984;-79
2021/12/25 01:01:40;;;;;;;;;;;0.00;90.40;;;;;;6137697;23;20306;-79
2021/12/25 01:04:07;;;;;;;;;;;0.00;90.30;;;;;;6105430;23;20298;-80
2021/12/25 01:06:35;;;;;;;;;;;0.00;90.40;;;;;;6101729;23;19991;-79
2021/12/25 01:09:02;;;;;;;;;;;0.10;90.40;;;;;;6107239;23;19976;-79
2021/12/25 01:11:30;;;;;;;;;;;0.10;90.40;;;;;;6105066;23;19925;-78
2021/12/25 01:14:05;;;;;;;;;;;0.10;90.40;;;;;;6111212;23;19921;-78
2021/12/25 01:19:49;;;;;;;;;;;0.10;90.70;;;;;;6131335;23;20338;-80
2021/12/25 01:22:57;;;;;;;;;;;0.10;90.20;;;;;;6109806;23;19912;-79
2021/12/25 01:30:19;;;;;;;;;;;-0.10;90.60;;;;;;6133618;23;19929;-79
2021/12/25 01:41:39;;;;;;;;;;;0.00;90.40;;;;;;6130630;23;19991;-80
2021/12/25 01:49:07;;;;;;;;;;;0.00;90.50;;;;;;6139975;23;19921;-77
2021/12/25 01:51:34;;;;;;;;;;;0.00;90.40;;;;;;6100976;23;19932;-79
2021/12/25 01:54:01;;;;;;;;;;;-0.10;90.30;;;;;;6112341;23;19925;-79
2021/12/25 01:56:28;;;;;;;;;;;0.00;90.30;;;;;;6106008;23;19921;-79
2021/12/25 01:58:54;;;;;;;;;;;0.00;90.40;;;;;;6101734;23;19924;-77
2021/12/25 02:01:21;;;;;;;;;;;0.00;90.50;;;;;;6109035;23;19952;-78
2021/12/25 02:03:48;;;;;;;;;;;0.00;90.50;;;;;;6105542;23;20313;-79
2021/12/25 02:06:15;;;;;;;;;;;0.00;90.50;;;;;;6108185;23;19920;-78
2021/12/25 02:08:43;;;;;;;;;;;0.00;90.50;;;;;;6109675;23;19905;-76
2021/12/25 02:11:10;;;;;;;;;;;0.00;90.60;;;;;;6101224;23;19932;-80
2021/12/25 02:13:38;;;;;;;;;;;0.00;90.70;;;;;;6105357;23;19924;-79
2021/12/25 02:16:13;;;;;;;;;;;0.00;90.60;;;;;;6111128;23;20239;-80
2021/12/25 02:21:38;;;;;;;;;;;0.00;90.70;;;;;;6112005;23;20407;-80
2021/12/25 02:24:12;;;;;;;;;;;0.00;90.70;;;;;;6133702;23;20385;-77
2021/12/25 02:26:41;;;;;;;;;;;0.00;90.70;;;;;;6132448;23;19921;-79
2021/12/25 02:29:08;;;;;;;;;;;0.00;90.80;;;;;;6115835;23;19928;-80
2021/12/25 02:31:35;;;;;;;;;;;0.00;90.80;;;;;;6099250;23;20262;-80
2021/12/25 02:34:02;;;;;;;;;;;0.00;90.60;;;;;;6116516;23;19925;-80
2021/12/25 02:36:29;;;;;;;;;;;0.10;90.60;;;;;;6107686;23;20330;-80
2021/12/25 02:38:56;;;;;;;;;;;0.10;90.60;;;;;;6105308;23;19944;-78
2021/12/25 02:41:23;;;;;;;;;;;0.10;90.60;;;;;;6135218;23;19945;-79
2021/12/25 02:43:49;;;;;;;;;;;0.10;90.50;;;;;;6131366;23;20035;-79
2021/12/25 02:46:16;;;;;;;;;;;0.10;90.60;;;;;;6127194;23;19920;-79
2021/12/25 02:48:43;;;;;;;;;;;0.10;90.50;;;;;;6101277;23;19953;-79
2021/12/25 02:51:10;;;;;;;;;;;0.10;90.50;;;;;;6104895;23;19983;-79
2021/12/25 02:53:38;;;;;;;;;;;0.10;90.40;;;;;;6140934;23;20306;-79
2021/12/25 02:56:05;;;;;;;;;;;0.00;90.60;;;;;;6111532;23;20357;-79
2021/12/25 02:58:32;;;;;;;;;;;0.00;90.70;;;;;;6130027;23;19920;-79
2021/12/25 03:01:01;;;;;;;;;;;-0.10;90.50;;;;;;6110364;23;19945;-78
2021/12/25 03:03:28;;;;;;;;;;;0.00;90.50;;;;;;6104216;23;20302;-79
2021/12/25 03:05:55;;;;;;;;;;;-0.10;90.50;;;;;;6105532;23;19925;-79
2021/12/25 03:08:22;;;;;;;;;;;-0.10;90.40;;;;;;6110140;23;19929;-78
2021/12/25 03:10:49;;;;;;;;;;;-0.10;90.40;;;;;;6112516;23;20775;-79
2021/12/25 03:13:29;;;;;;;;;;;-0.10;90.50;;;;;;6083553;23;19972;-80
2021/12/25 03:15:57;;;;;;;;;;;-0.10;90.70;;;;;;6095312;23;19989;-79
2021/12/25 03:18:26;;;;;;;;;;;-0.10;90.70;;;;;;6081007;23;19957;-79
2021/12/25 03:20:56;;;;;;;;;;;-0.10;90.60;;;;;;6079005;23;19929;-77
2021/12/25 03:23:24;;;;;;;;;;;-0.20;90.40;;;;;;6077561;23;19973;-80
2021/12/25 03:25:52;;;;;;;;;;;-0.20;90.30;;;;;;6070686;23;19921;-79
2021/12/25 03:28:21;;;;;;;;;;;-0.10;90.40;;;;;;6085551;23;19912;-78
2021/12/25 03:30:49;;;;;;;;;;;-0.20;90.40;;;;;;6083042;23;19953;-79
2021/12/25 03:33:18;;;;;;;;;;;-0.20;90.50;;;;;;6072428;23;19921;-79
2021/12/25 03:35:45;;;;;;;;;;;-0.20;90.40;;;;;;6075226;23;19925;-79
2021/12/25 03:38:13;;;;;;;;;;;-0.20;90.30;;;;;;6082658;23;20298;-79
2021/12/25 03:40:41;;;;;;;;;;;-0.10;90.30;;;;;;6070089;23;19985;-79
2021/12/25 03:43:09;;;;;;;;;;;-0.20;90.30;;;;;;6107808;23;19905;-77
2021/12/25 03:45:36;;;;;;;;;;;-0.20;90.30;;;;;;6087098;23;19926;-79
2021/12/25 03:48:09;;;;;;;;;;;-0.20;90.40;;;;;;6087260;23;19973;-79
2021/12/25 03:58:34;;;;;;;;;;;-0.10;90.50;;;;;;6108008;23;19921;-79
2021/12/25 04:01:22;;;;;;;;;;;-0.10;90.40;;;;;;6081880;23;19905;-77
2021/12/25 04:04:05;;;;;;;;;;;-0.20;90.30;;;;;;6113243;23;19974;-80
2021/12/25 04:06:32;;;;;;;;;;;-0.10;90.30;;;;;;6078141;23;20311;-79
2021/12/25 04:09:01;;;;;;;;;;;-0.20;90.20;;;;;;6077094;23;20379;-80
2021/12/25 04:11:32;;;;;;;;;;;-0.20;90.20;;;;;;6088951;23;19921;-80
2021/12/25 04:13:58;;;;;;;;;;;-0.20;90.30;;;;;;6105926;23;19925;-80
2021/12/25 04:16:28;;;;;;;;;;;-0.20;90.40;;;;;;6115880;23;19981;-80
2021/12/25 04:18:55;;;;;;;;;;;-0.20;90.50;;;;;;6114491;23;19994;-78
2021/12/25 04:21:23;;;;;;;;;;;-0.20;90.50;;;;;;6105105;23;19925;-77
2021/12/25 04:23:50;;;;;;;;;;;-0.20;90.50;;;;;;6108104;23;19979;-80
2021/12/25 04:26:20;;;;;;;;;;;-0.20;90.60;;;;;;6101194;23;20302;-80
2021/12/25 04:29:01;;;;;;;;;;;-0.30;90.40;;;;;;6127487;23;19921;-78
2021/12/25 04:31:48;;;;;;;;;;;-0.30;90.40;;;;;;6102748;23;20349;-79
2021/12/25 05:01:48;;;;;;;;;;;-0.20;90.80;;;;;;6130915;23;19920;-79
2021/12/25 05:04:31;;;;;;;;;;;-0.20;90.80;;;;;;6101155;23;19921;-80
2021/12/25 05:06:57;;;;;;;;;;;-0.20;90.80;;;;;;6104702;23;19921;-78
2021/12/25 05:09:24;;;;;;;;;;;-0.20;90.80;;;;;;6105919;23;19931;-79
2021/12/25 05:11:51;;;;;;;;;;;-0.20;90.80;;;;;;6105055;23;19921;-79
2021/12/25 05:14:18;;;;;;;;;;;-0.20;90.90;;;;;;6105970;23;19925;-79
2021/12/25 05:16:45;;;;;;;;;;;-0.20;90.80;;;;;;6099619;23;19931;-80
2021/12/25 05:19:12;;;;;;;;;;;-0.20;91.00;;;;;;6116618;23;19943;-80
2021/12/25 05:21:39;;;;;;;;;;;-0.30;91.10;;;;;;6100264;23;19928;-79
2021/12/25 05:24:06;;;;;;;;;;;-0.30;91.20;;;;;;6105934;23;19921;-80
2021/12/25 05:26:33;;;;;;;;;;;-0.30;91.20;;;;;;6111933;23;20273;-77
2021/12/25 05:29:01;;;;;;;;;;;-0.30;91.20;;;;;;6133250;23;19928;-79
2021/12/25 05:31:30;;;;;;;;;;;-0.30;91.20;;;;;;6110259;23;19928;-80
2021/12/25 05:33:57;;;;;;;;;;;-0.20;91.20;;;;;;6110389;23;19922;-79
2021/12/25 05:36:26;;;;;;;;;;;-0.20;91.10;;;;;;6110574;23;19932;-79
2021/12/25 05:38:58;;;;;;;;;;;-0.20;91.10;;;;;;6099596;23;20346;-79
2021/12/25 05:41:26;;;;;;;;;;;-0.20;91.00;;;;;;6114850;23;19929;-80
2021/12/25 05:43:53;;;;;;;;;;;-0.20;91.20;;;;;;6131027;23;19954;-79
2021/12/25 05:46:20;;;;;;;;;;;-0.20;91.10;;;;;;6112652;23;19944;-76
2021/12/25 05:48:49;;;;;;;;;;;-0.20;91.00;;;;;;6108780;23;20335;-79
2021/12/25 05:51:18;;;;;;;;;;;-0.20;91.00;;;;;;6100276;23;19921;-79
2021/12/25 05:53:45;;;;;;;;;;;-0.20;91.00;;;;;;6108152;23;19921;-78
2021/12/25 05:56:12;;;;;;;;;;;-0.20;91.00;;;;;;6102582;23;19968;-76
2021/12/25 05:58:38;;;;;;;;;;;-0.20;90.90;;;;;;6109017;23;19921;-79
2021/12/25 06:01:05;;;;;;;;;;;-0.20;90.90;;;;;;6109998;23;19925;-76
2021/12/25 06:03:32;;;;;;;;;;;-0.20;91.10;;;;;;6133826;23;19955;-76
2021/12/25 06:05:59;;;;;;;;;;;-0.20;91.00;;;;;;6107558;23;19925;-79
2021/12/25 06:08:27;;;;;;;;;;;-0.20;91.00;;;;;;6114229;23;19928;-79
2021/12/25 06:10:54;;;;;;;;;;;-0.30;91.00;;;;;;6100704;23;19921;-79
2021/12/25 06:13:22;;;;;;;;;;;-0.30;91.10;;;;;;6096133;23;19929;-79
2021/12/25 06:15:52;;;;;;;;;;;-0.30;91.10;;;;;;6070179;23;19921;-78
2021/12/25 06:18:18;;;;;;;;;;;-0.30;91.00;;;;;;6071500;23;19921;-79
2021/12/25 06:20:45;;;;;;;;;;;-0.30;90.90;;;;;;6074716;23;20019;-78
2021/12/25 06:23:12;;;;;;;;;;;-0.30;90.90;;;;;;6076072;23;20343;-79
2021/12/25 06:25:39;;;;;;;;;;;-0.30;91.00;;;;;;6099816;23;19972;-80
2021/12/25 06:28:06;;;;;;;;;;;-0.30;90.90;;;;;;6100964;23;19925;-79
2021/12/25 06:30:33;;;;;;;;;;;-0.30;90.90;;;;;;6074168;23;19976;-78
2021/12/25 06:33:00;;;;;;;;;;;-0.20;91.20;;;;;;6106559;23;19921;-77
2021/12/25 06:35:28;;;;;;;;;;;-0.10;91.40;;;;;;6075174;23;19973;-79
2021/12/25 06:37:54;;;;;;;;;;;-0.10;91.30;;;;;;6103659;23;19972;-79
2021/12/25 06:40:26;;;;;;;;;;;-0.10;91.10;;;;;;6072257;23;19922;-78
2021/12/25 06:42:53;;;;;;;;;;;-0.10;91.00;;;;;;6077412;23;19929;-77
2021/12/25 06:45:20;;;;;;;;;;;-0.10;91.00;;;;;;6080737;23;19933;-79
2021/12/25 06:47:47;;;;;;;;;;;-0.10;91.00;;;;;;6073900;23;19961;-78
2021/12/25 06:50:14;;;;;;;;;;;-0.20;91.00;;;;;;6099333;23;19925;-80
2021/12/25 06:52:45;;;;;;;;;;;-0.20;91.10;;;;;;6078751;23;20240;-79
2021/12/25 06:55:13;;;;;;;;;;;-0.30;91.10;;;;;;6079617;23;19905;-79
2021/12/25 06:57:47;;;;;;;;;;;-0.40;91.00;;;;;;6075738;23;19924;-77
2021/12/25 07:00:14;;;;;;;;;;;-0.40;90.90;;;;;;6075721;23;19948;-79
2021/12/25 07:02:41;;;;;;;;;;;-0.40;91.10;;;;;;6074751;23;19969;-80
2021/12/25 07:05:08;;;;;;;;;;;-0.50;91.30;;;;;;6104173;23;20287;-79
2021/12/25 07:07:35;;;;;;;;;;;-0.50;91.70;;;;;;6108462;23;19925;-79
2021/12/25 07:10:04;;;;;;;;;;;-0.50;92.00;;;;;;6082713;23;19984;-79
2021/12/25 07:12:37;;;;;;;;;;;-0.50;91.90;;;;;;6095728;23;19921;-80
2021/12/25 07:15:05;;;;;;;;;;;-0.50;91.90;;;;;;6129128;23;20357;-79
2021/12/25 07:17:32;;;;;;;;;;;-0.50;91.80;;;;;;6100556;23;19921;-79
2021/12/25 07:19:59;;;;;;;;;;;-0.50;91.60;;;;;;6134348;23;19925;-80
2021/12/25 07:22:26;;;;;;;;;;;-0.50;91.60;;;;;;6110425;23;19924;-79
2021/12/25 07:24:53;;;;;;;;;;;-0.50;91.70;;;;;;6113182;23;20248;-79
2021/12/25 07:27:20;;;;;;;;;;;-0.50;91.50;;;;;;6108981;23;19996;-80
2021/12/25 07:29:47;;;;;;;;;;;-0.50;91.50;;;;;;6114210;23;19924;-79
2021/12/25 07:32:14;;;;;;;;;;;-0.50;91.50;;;;;;6112209;23;19949;-79
2021/12/25 07:34:41;;;;;;;;;;;-0.40;91.60;;;;;;6107820;23;19925;-78
2021/12/25 07:37:08;;;;;;;;;;;-0.40;91.60;;;;;;6111559;23;19921;-79
2021/12/25 07:39:35;;;;;;;;;;;-0.40;91.40;;;;;;6132668;23;19925;-79
2021/12/25 07:42:02;;;;;;;;;;;-0.30;91.30;;;;;;6111668;23;19921;-79
2021/12/25 07:44:28;;;;;;;;;;;-0.30;91.10;;;;;;6131945;23;20339;-79
2021/12/25 07:46:55;;;;;;;;;;;-0.20;91.20;;;;;;6113452;23;19937;-79
2021/12/25 07:49:22;;;;;;;;;;;-0.20;91.20;;;;;;6136416;23;19916;-79
2021/12/25 07:51:49;;;;;;;;;;;-0.10;91.20;;;;;;6104745;23;19921;-78
2021/12/25 07:54:16;;;;;;;;;;;0.00;91.20;;;;;;6106058;23;19948;-79
2021/12/25 07:56:43;;;;;;;;;;;0.00;91.20;;;;;;6107275;23;20254;-78
2021/12/25 07:59:10;;;;;;;;;;;0.10;91.20;;;;;;6142678;23;19925;-79
2021/12/25 08:01:37;;;;;;;;;;;0.30;91.00;;;;;;6127012;23;19921;-79
2021/12/25 08:04:05;;;;;;;;;;;0.30;91.00;;;;;;6106492;23;19945;-78
2021/12/25 08:06:32;;;;;;;;;;;0.30;90.90;;;;;;6109657;23;19921;-80
2021/12/25 08:09:00;;;;;;;;;;;0.40;90.90;;;;;;6139299;23;20235;-79
2021/12/25 08:11:28;;;;;;;;;;;0.40;91.00;;;;;;6112333;23;19920;-79
2021/12/25 08:13:55;;;;;;;;;;;0.50;91.10;;;;;;6136844;23;19932;-80
2021/12/25 08:16:22;;;;;;;;;;;0.50;91.30;;;;;;6100957;23;19968;-79
2021/12/25 08:18:49;;;;;;;;;;;0.50;91.30;;;;;;6112378;23;19928;-78
2021/12/25 08:21:16;;;;;;;;;;;0.60;91.30;;;;;;6131487;23;19928;-79
2021/12/25 08:23:43;;;;;;;;;;;0.70;91.20;;;;;;6131679;23;19921;-80
2021/12/25 08:26:15;;;;;;;;;;;0.70;91.10;;;;;;6131172;23;20265;-78
2021/12/25 08:28:42;;;;;;;;;;;0.80;91.10;;;;;;6104433;23;20508;-80
2021/12/25 08:31:08;;;;;;;;;;;0.80;91.00;;;;;;6100896;23;19921;-79
2021/12/25 08:33:35;;;;;;;;;;;0.90;91.00;;;;;;6117321;23;19925;-79
2021/12/25 08:36:02;;;;;;;;;;;0.90;91.00;;;;;;6099482;23;19921;-79
2021/12/25 08:38:29;;;;;;;;;;;0.90;91.00;;;;;;6105832;23;19905;-77
2021/12/25 08:40:56;;;;;;;;;;;0.90;91.00;;;;;;6104782;23;19921;-79
2021/12/25 08:43:25;;;;;;;;;;;0.90;91.30;;;;;;6097664;23;20377;-80
2021/12/25 08:46:17;;;;;;;;;;;1.00;91.30;;;;;;6107714;23;20369;-79
2021/12/25 08:48:39;;;;;;;;;;;1.00;91.30;;;;;;6121764;23;20428;-78
2021/12/25 08:51:06;;;;;;;;;;;1.10;91.30;;;;;;6125363;23;20342;-77
2021/12/25 08:53:33;;;;;;;;;;;1.20;91.10;;;;;;6133332;23;19925;-77
2021/12/25 08:56:00;;;;;;;;;;;1.20;91.00;;;;;;6104039;23;19925;-79
2021/12/25 08:58:30;;;;;;;;;;;1.30;91.00;;;;;;6104263;23;20261;-79
2021/12/25 09:01:01;;;;;;;;;;;1.30;91.10;;;;;;6096295;23;19921;-78
2021/12/25 09:03:29;;;;;;;;;;;1.30;91.00;;;;;;6127774;23;20000;-80
2021/12/25 09:05:58;;;;;;;;;;;1.40;91.10;;;;;;6098903;23;19999;-80
2021/12/25 09:08:25;;;;;;;;;;;1.40;91.00;;;;;;6124162;23;20310;-80
2021/12/25 09:10:51;;;;;;;;;;;1.40;91.00;;;;;;6118925;23;20012;-80
2021/12/25 09:13:18;;;;;;;;;;;1.50;90.90;;;;;;6065421;23;19969;-80
2021/12/25 09:15:45;;;;;;;;;;;1.50;90.70;;;;;;6075223;23;19925;-80
2021/12/25 09:18:12;;;;;;;;;;;1.70;90.60;;;;;;6095960;23;19928;-81
2021/12/25 09:20:39;;;;;;;;;;;1.70;90.50;;;;;;6097462;23;19925;-75
2021/12/25 09:23:06;;;;;;;;;;;1.80;90.30;;;;;;6074428;23;19972;-77
2021/12/25 09:25:33;;;;;;;;;;;1.80;89.80;;;;;;6076188;23;19945;-79
2021/12/25 09:28:00;;;;;;;;;;;1.80;90.30;;;;;;6071104;23;20283;-79
2021/12/25 09:30:26;;;;;;;;;;;1.80;90.50;;;;;;6110833;23;19922;-79
2021/12/25 09:32:53;;;;;;;;;;;1.80;91.00;;;;;;6082145;23;19925;-77
2021/12/25 09:35:20;;;;;;;;;;;1.90;90.80;;;;;;6079303;23;19957;-78
2021/12/25 09:37:47;;;;;;;;;;;2.10;90.30;;;;;;6102512;23;19977;-79
2021/12/25 09:40:14;;;;;;;;;;;2.10;89.70;;;;;;6101849;23;19964;-79
2021/12/25 09:42:43;;;;;;;;;;;2.10;89.30;;;;;;6088617;23;19922;-79
2021/12/25 09:45:11;;;;;;;;;;;2.20;88.90;;;;;;6075521;23;20406;-78
2021/12/25 09:47:38;;;;;;;;;;;2.20;88.80;;;;;;6073926;23;19930;-79
2021/12/25 09:50:05;;;;;;;;;;;2.20;88.60;;;;;;6076926;23;19929;-80
2021/12/25 09:52:32;;;;;;;;;;;2.20;88.40;;;;;;6095249;23;19921;-79
2021/12/25 09:54:59;;;;;;;;;;;2.30;88.70;;;;;;6081250;23;19913;-78
2021/12/25 09:57:26;;;;;;;;;;;2.30;88.80;;;;;;6082053;23;19922;-79
2021/12/25 09:59:53;;;;;;;;;;;2.30;88.60;;;;;;6080298;23;19925;-78
2021/12/25 10:02:20;;;;;;;;;;;2.40;88.80;;;;;;6108175;23;19921;-78
2021/12/25 10:04:52;;;;;;;;;;;2.40;88.70;;;;;;6072791;23;19974;-76
2021/12/25 10:07:29;;;;;;;;;;;2.50;88.50;;;;;;6071787;23;19921;-79
2021/12/25 10:09:58;;;;;;;;;;;2.60;88.30;;;;;;6072255;23;19928;-78
2021/12/25 10:12:30;;;;;;;;;;;2.70;88.40;;;;;;6096876;23;20420;-77
2021/12/25 10:14:57;;;;;;;;;;;2.60;88.90;;;;;;6129381;23;19925;-79
2021/12/25 10:17:26;;;;;;;;;;;2.60;89.10;;;;;;6107195;23;19979;-79
2021/12/25 10:20:07;;;;;;;;;;;2.60;89.00;;;;;;6081373;23;20389;-79
2021/12/25 10:22:35;;;;;;;;;;;2.60;88.70;;;;;;6098965;23;19921;-75
2021/12/25 10:25:11;;;;;;;;;;;2.60;88.80;;;;;;6125014;23;19927;-79
2021/12/25 10:27:46;;;;;;;;;;;2.70;88.80;;;;;;6103810;23;19941;-78
2021/12/25 10:30:13;;;;;;;;;;;2.70;88.60;;;;;;6108105;23;19921;-77
2021/12/25 10:32:40;;;;;;;;;;;2.80;88.40;;;;;;6132268;23;19936;-77
2021/12/25 10:35:33;;;;;;;;;;;2.80;88.30;;;;;;6099416;23;19925;-79
2021/12/25 10:38:09;;;;;;;;;;;2.80;88.30;;;;;;6101741;23;19929;-78
2021/12/25 10:40:36;;;;;;;;;;;2.90;88.00;;;;;;6128072;23;19921;-79
2021/12/25 10:43:03;;;;;;;;;;;2.90;88.40;;;;;;6103948;23;19924;-79
2021/12/25 10:45:31;;;;;;;;;;;2.80;89.10;;;;;;6127598;23;20346;-76
2021/12/25 10:48:04;;;;;;;;;;;2.80;89.40;;;;;;6106373;23;19924;-77
2021/12/25 10:50:49;;;;;;;;;;;2.70;89.50;;;;;;6108337;23;19921;-79
2021/12/25 10:53:22;;;;;;;;;;;2.80;89.50;;;;;;6133095;23;19984;-77
2021/12/25 10:55:49;;;;;;;;;;;2.80;88.90;;;;;;6106063;23;19925;-76
2021/12/25 10:58:17;;;;;;;;;;;2.90;88.70;;;;;;6101918;23;19921;-80
2021/12/25 11:00:48;;;;;;;;;;;2.90;88.70;;;;;;6099209;23;19925;-80
2021/12/25 11:03:15;;;;;;;;;;;3.00;88.10;;;;;;6078554;23;19925;-79
2021/12/25 11:05:47;;;;;;;;;;;3.00;88.30;;;;;;6103514;23;19921;-80
2021/12/25 11:08:19;;;;;;;;;;;3.10;88.10;;;;;;6102813;23;19928;-79
2021/12/25 11:10:48;;;;;;;;;;;3.10;87.90;;;;;;6097888;23;20397;-80
2021/12/25 11:13:16;;;;;;;;;;;3.20;87.70;;;;;;6102355;23;19925;-76
2021/12/25 11:15:43;;;;;;;;;;;3.30;87.60;;;;;;6074535;23;19981;-78
2021/12/25 11:18:12;;;;;;;;;;;3.30;87.30;;;;;;6094421;23;20303;-80
2021/12/25 11:20:40;;;;;;;;;;;3.30;87.50;;;;;;6070207;23;19921;-79
2021/12/25 11:23:09;;;;;;;;;;;3.40;85.80;;;;;;6069681;23;19933;-78
2021/12/25 11:25:37;;;;;;;;;;;3.50;85.90;;;;;;6077343;23;19928;-77
2021/12/25 11:28:06;;;;;;;;;;;3.40;84.80;;;;;;6080606;23;19976;-80
2021/12/25 11:30:35;;;;;;;;;;;3.40;84.60;;;;;;6076873;23;19921;-76
2021/12/25 11:33:02;;;;;;;;;;;3.50;83.30;;;;;;6076505;23;20364;-79
2021/12/25 11:35:33;;;;;;;;;;;3.60;82.20;;;;;;6074996;23;19944;-79
2021/12/25 11:38:01;;;;;;;;;;;3.60;82.20;;;;;;6100037;23;20319;-79
2021/12/25 11:40:30;;;;;;;;;;;3.70;82.40;;;;;;6074415;23;19929;-76
2021/12/25 11:43:00;;;;;;;;;;;3.80;82.00;;;;;;6073258;23;19976;-78
2021/12/25 11:45:47;;;;;;;;;;;3.80;81.70;;;;;;6070113;23;19928;-78
2021/12/25 11:48:18;;;;;;;;;;;3.90;81.10;;;;;;6072923;23;19933;-79
2021/12/25 11:50:47;;;;;;;;;;;3.90;80.30;;;;;;6081654;23;19936;-77
2021/12/25 11:53:24;;;;;;;;;;;3.90;81.10;;;;;;6074407;23;19925;-78
2021/12/25 11:58:44;;;;;;;;;;;3.80;82.00;;;;;;6103601;23;20429;-78
2021/12/25 12:01:26;;;;;;;;;;;3.80;82.20;;;;;;6080860;23;20350;-77
2021/12/25 12:03:57;;;;;;;;;;;3.80;82.40;;;;;;6077507;23;19932;-76
2021/12/25 12:06:42;;;;;;;;;;;3.80;82.40;;;;;;6099677;23;20318;-77
2021/12/25 12:09:11;;;;;;;;;;;3.90;80.30;;;;;;6074604;23;19946;-79
2021/12/25 12:11:40;;;;;;;;;;;4.10;79.40;;;;;;6092334;23;19975;-78
2021/12/25 12:14:19;;;;;;;;;;;4.20;76.60;;;;;;6108035;23;19921;-78
2021/12/25 12:16:57;;;;;;;;;;;4.30;75.90;;;;;;6104242;23;19925;-79
2021/12/25 12:19:30;;;;;;;;;;;4.40;74.70;;;;;;6115523;23;19976;-78
2021/12/25 12:27:41;;;;;;;;;;;4.10;79.30;;;;;;6103915;23;19921;-78
2021/12/25 12:30:12;;;;;;;;;;;4.10;79.70;;;;;;6129447;23;19925;-78
2021/12/25 13:13:11;;;;;;;;;;;4.00;78.80;;;;;;6096573;23;19976;-79
2021/12/25 13:15:40;;;;;;;;;;;3.90;79.10;;;;;;6072049;23;19921;-77
2021/12/25 13:18:07;;;;;;;;;;;4.00;79.10;;;;;;6071048;23;20393;-80
2021/12/25 13:20:40;;;;;;;;;;;4.00;79.10;;;;;;6070275;23;19969;-76
2021/12/25 13:23:14;;;;;;;;;;;4.00;79.10;;;;;;6097272;23;19972;-76
2021/12/25 13:25:49;;;;;;;;;;;4.20;78.70;;;;;;6071878;23;20398;-77
2021/12/25 13:28:16;;;;;;;;;;;4.20;78.40;;;;;;6070658;23;20401;-77
2021/12/25 13:30:49;;;;;;;;;;;4.20;78.70;;;;;;6071882;23;19928;-78
2021/12/25 13:33:19;;;;;;;;;;;4.20;78.90;;;;;;6070819;23;19925;-78
2021/12/25 13:35:46;;;;;;;;;;;4.30;79.20;;;;;;6071160;23;19926;-77
2021/12/25 13:38:13;;;;;;;;;;;4.30;79.00;;;;;;6096751;23;20318;-78
2021/12/25 13:40:45;;;;;;;;;;;4.30;79.20;;;;;;6072063;23;19925;-79
2021/12/25 13:43:12;;;;;;;;;;;4.30;78.90;;;;;;6071394;23;19929;-76
2021/12/25 13:45:39;;;;;;;;;;;4.40;78.90;;;;;;6072069;23;19988;-76
2021/12/25 13:48:06;;;;;;;;;;;4.40;78.60;;;;;;6070186;23;19928;-80
2021/12/25 13:50:34;;;;;;;;;;;4.50;77.80;;;;;;6071166;23;19925;-79
2021/12/25 13:53:01;;;;;;;;;;;4.50;76.50;;;;;;6070858;23;19980;-79
2021/12/25 13:55:30;;;;;;;;;;;4.60;76.30;;;;;;6070805;23;19921;-80
2021/12/25 13:57:58;;;;;;;;;;;4.60;76.60;;;;;;6095610;23;20347;-77
2021/12/25 14:00:27;;;;;;;;;;;4.60;76.80;;;;;;6072777;23;19925;-79
2021/12/25 14:02:58;;;;;;;;;;;4.60;76.80;;;;;;6069792;23;19929;-77
2021/12/25 14:05:26;;;;;;;;;;;4.60;76.30;;;;;;6071537;23;20421;-79
2021/12/25 14:07:53;;;;;;;;;;;4.70;75.70;;;;;;6070669;23;20235;-77
2021/12/25 14:10:21;;;;;;;;;;;4.70;76.10;;;;;;6099838;23;20412;-78
2021/12/25 14:12:50;;;;;;;;;;;4.70;73.90;;;;;;6100623;23;19925;-80
2021/12/25 14:15:18;;;;;;;;;;;4.80;74.50;;;;;;6124074;23;19925;-77
2021/12/25 14:17:46;;;;;;;;;;;4.80;74.60;;;;;;6100887;23;19971;-77
2021/12/25 14:20:25;;;;;;;;;;;4.80;75.00;;;;;;6099099;23;20349;-81
2021/12/25 14:23:00;;;;;;;;;;;4.80;76.60;;;;;;6099528;23;20338;-80
2021/12/25 14:25:28;;;;;;;;;;;4.70;76.90;;;;;;6124847;23;19928;-79
2021/12/25 14:27:59;;;;;;;;;;;4.70;76.90;;;;;;6100461;23;20343;-77
2021/12/25 14:30:26;;;;;;;;;;;4.70;77.00;;;;;;6100043;23;20334;-80
2021/12/25 14:32:53;;;;;;;;;;;4.70;76.70;;;;;;6130575;23;19905;-76
2021/12/25 14:35:21;;;;;;;;;;;4.70;76.00;;;;;;6098455;23;20301;-80
2021/12/25 14:37:53;;;;;;;;;;;4.70;75.90;;;;;;6101163;23;19924;-80
2021/12/25 14:40:21;;;;;;;;;;;4.80;74.50;;;;;;6101487;23;19921;-81
2021/12/25 14:42:53;;;;;;;;;;;4.90;73.00;;;;;;6103146;23;19949;-77
2021/12/25 14:45:21;;;;;;;;;;;4.90;72.90;;;;;;6100818;23;20011;-80
2021/12/25 14:47:53;;;;;;;;;;;4.90;72.20;;;;;;6099438;23;20313;-81
2021/12/25 14:50:25;;;;;;;;;;;5.00;71.70;;;;;;6103577;23;19924;-78
2021/12/25 14:53:03;;;;;;;;;;;5.00;71.80;;;;;;6104070;23;19921;-77
2021/12/25 14:55:37;;;;;;;;;;;5.00;72.30;;;;;;6099165;23;20403;-81
2021/12/25 14:58:06;;;;;;;;;;;5.00;72.80;;;;;;6105945;23;19928;-79
2021/12/25 15:00:34;;;;;;;;;;;5.00;73.10;;;;;;6126104;23;19921;-78
2021/12/25 15:03:18;;;;;;;;;;;4.90;74.20;;;;;;6104945;23;19927;-78
2021/12/25 15:05:49;;;;;;;;;;;4.80;73.40;;;;;;6126580;23;19980;-79
2021/12/25 15:08:21;;;;;;;;;;;4.80;74.30;;;;;;6127859;23;19965;-78
2021/12/25 15:10:49;;;;;;;;;;;4.80;75.40;;;;;;6070957;23;19925;-81
2021/12/25 15:13:19;;;;;;;;;;;4.80;75.80;;;;;;6075367;23;19925;-83
2021/12/25 15:16:04;;;;;;;;;;;4.70;76.50;;;;;;5980341;24;19923;-78
2021/12/25 15:18:32;;;;;;;;;;;4.60;77.00;;;;;;5984159;24;19934;-79
2021/12/25 15:21:07;;;;;;;;;;;4.60;77.50;;;;;;5978980;24;20040;-80
2021/12/25 15:23:34;;;;;;;;;;;4.50;77.60;;;;;;5980237;24;19922;-81
2021/12/25 15:26:05;;;;;;;;;;;4.50;77.80;;;;;;5978945;24;19929;-79
2021/12/25 15:28:32;;;;;;;;;;;4.50;78.10;;;;;;5979438;24;19955;-79
2021/12/25 15:31:12;;;;;;;;;;;4.40;78.20;;;;;;5980309;24;19927;-80
2021/12/25 15:34:11;;;;;;;;;;;4.40;78.40;;;;;;5979479;24;19963;-81
2021/12/25 15:36:45;;;;;;;;;;;4.30;78.60;;;;;;5912866;24;19927;-80
2021/12/25 15:39:14;;;;;;;;;;;4.30;78.80;;;;;;5980127;24;19922;-78
2021/12/25 15:41:42;;;;;;;;;;;4.20;79.30;;;;;;5978919;24;19923;-80
2021/12/25 15:44:09;;;;;;;;;;;4.10;79.30;;;;;;5978917;24;19979;-79
2021/12/25 15:46:36;;;;;;;;;;;4.00;79.60;;;;;;6011131;23;19925;-78
2021/12/25 15:49:04;;;;;;;;;;;4.00;80.00;;;;;;6072920;23;19921;-77
2021/12/25 15:51:30;;;;;;;;;;;4.00;80.30;;;;;;6071076;23;20338;-79
2021/12/25 15:53:57;;;;;;;;;;;3.90;80.50;;;;;;6072170;23;20342;-78
2021/12/25 15:56:25;;;;;;;;;;;3.90;80.70;;;;;;6071071;23;20231;-78
2021/12/25 15:58:53;;;;;;;;;;;3.80;80.80;;;;;;6072364;23;19925;-82
2021/12/25 16:01:27;;;;;;;;;;;3.80;80.70;;;;;;6075397;23;19928;-82
2021/12/25 16:03:54;;;;;;;;;;;3.80;80.60;;;;;;6072874;23;19925;-82
2021/12/25 16:06:21;;;;;;;;;;;3.70;80.60;;;;;;6071921;23;20346;-83
2021/12/25 16:08:48;;;;;;;;;;;3.70;80.60;;;;;;6083653;23;19921;-82
2021/12/25 16:11:15;;;;;;;;;;;3.60;80.90;;;;;;6106554;23;19921;-82
2021/12/25 16:13:42;;;;;;;;;;;3.50;80.80;;;;;;6105818;23;19972;-82
2021/12/25 16:16:10;;;;;;;;;;;3.40;81.50;;;;;;6103470;23;19979;-81
2021/12/25 16:18:39;;;;;;;;;;;3.30;81.40;;;;;;6102188;23;19921;-85
2021/12/25 16:21:07;;;;;;;;;;;3.20;81.50;;;;;;6105725;23;19924;-84
2021/12/25 16:23:34;;;;;;;;;;;3.20;81.70;;;;;;6101443;23;19921;-81
2021/12/25 16:26:00;;;;;;;;;;;3.10;81.70;;;;;;6103092;23;20349;-82
2021/12/25 16:28:27;;;;;;;;;;;3.00;82.00;;;;;;6109973;23;19921;-83
2021/12/25 16:30:55;;;;;;;;;;;3.00;82.30;;;;;;6104946;23;19921;-81
2021/12/25 16:33:23;;;;;;;;;;;3.00;83.80;;;;;;6101526;23;19921;-84